createdAt,value
2023-01-23T00:01:27.492Z,102457.52
2023-01-23T00:03:55.856Z,102458.70
2023-01-23T00:06:23.941Z,102459.03
2023-01-23T00:08:51.968Z,102458.60
2023-01-23T00:11:21.984Z,102458.17
2023-01-23T00:13:49.796Z,102458.64
2023-01-23T00:16:19.965Z,102462.90
2023-01-23T00:18:48.062Z,102464.36
2023-01-23T00:21:17.355Z,102461.55
2023-01-23T00:23:46.443Z,102463.36
2023-01-23T00:26:16.319Z,102465.13
2023-01-23T00:28:44.858Z,102469.92
2023-01-23T00:31:18.521Z,102467.05
2023-01-23T00:33:46.873Z,102466.96
2023-01-23T00:36:15.999Z,102467.90
2023-01-23T00:38:44.371Z,102467.27
2023-01-23T00:41:15.482Z,102465.30
2023-01-23T00:43:43.423Z,102468.59
2023-01-23T00:46:11.289Z,102463.45
2023-01-23T00:48:40.804Z,102466.54
2023-01-23T00:51:08.781Z,102464.59
2023-01-23T00:53:36.617Z,102466.69
2023-01-23T00:56:04.804Z,102466.27
2023-01-23T00:58:32.567Z,102461.33
2023-01-23T01:01:00.596Z,102464.33
2023-01-23T01:03:28.883Z,102465.94
2023-01-23T01:05:56.981Z,102463.16
2023-01-23T01:08:24.813Z,102465.02
2023-01-23T01:10:52.989Z,102462.17
2023-01-23T01:13:21.999Z,102462.48
2023-01-23T01:15:51.953Z,102459.09
2023-01-23T01:18:20.325Z,102457.98
2023-01-23T01:20:48.287Z,102459.73
2023-01-23T01:23:16.087Z,102455.93
2023-01-23T01:25:44.822Z,102456.98
2023-01-23T01:28:12.710Z,102459.55
2023-01-23T01:30:41.237Z,102463.29
2023-01-23T01:33:09.692Z,102462.77
2023-01-23T01:35:41.524Z,102457.45
2023-01-23T01:38:09.915Z,102457.65
2023-01-23T01:40:38.069Z,102455.82
2023-01-23T01:43:08.803Z,102459.80
2023-01-23T01:46:06.272Z,102459.81
2023-01-23T01:48:46.116Z,102450.94
2023-01-23T01:51:19.169Z,102451.28
2023-01-23T01:53:47.698Z,102443.98
2023-01-23T01:56:15.679Z,102445.09
2023-01-23T01:58:44.373Z,102447.92
2023-01-23T02:01:12.723Z,102445.85
2023-01-23T02:03:41.218Z,102447.92
2023-01-23T02:06:09.203Z,102448.42
2023-01-23T02:08:46.984Z,102440.99
2023-01-23T02:11:17.365Z,102447.57
2023-01-23T02:13:46.532Z,102443.91
2023-01-23T02:16:18.409Z,102446.83
2023-01-23T02:18:48.600Z,102446.25
2023-01-23T02:21:18.229Z,102445.44
2023-01-23T02:24:08.629Z,102446.13
2023-01-23T02:26:39.278Z,102443.86
2023-01-23T02:29:07.158Z,102443.70
2023-01-23T02:31:46.398Z,102443.20
2023-01-23T02:34:14.972Z,102443.39
2023-01-23T02:36:46.098Z,102439.97
2023-01-23T02:39:16.421Z,102437.02
2023-01-23T02:41:48.544Z,102437.77
2023-01-23T02:44:26.165Z,102436.90
2023-01-23T02:46:58.564Z,102439.60
2023-01-23T02:49:27.657Z,102439.53
2023-01-23T02:51:56.047Z,102438.61
2023-01-23T02:54:24.774Z,102440.44
2023-01-23T02:56:52.643Z,102438.64
2023-01-23T02:59:40.889Z,102444.40
2023-01-23T03:02:08.929Z,102443.02
2023-01-23T03:04:36.864Z,102446.90
2023-01-23T03:07:04.768Z,102441.27
2023-01-23T03:09:32.756Z,102441.73
2023-01-23T03:12:01.489Z,102442.05
2023-01-23T03:14:30.580Z,102437.21
2023-01-23T03:16:59.898Z,102441.32
2023-01-23T03:19:31.835Z,102446.50
2023-01-23T03:21:59.876Z,102438.85
2023-01-23T03:24:27.807Z,102435.84
2023-01-23T03:26:55.949Z,102437.27
2023-01-23T03:29:44.940Z,102434.02
2023-01-23T03:32:15.595Z,102430.17
2023-01-23T03:34:43.848Z,102431.11
2023-01-23T03:37:12.181Z,102432.74
2023-01-23T03:39:58.748Z,102430.20
2023-01-23T03:42:27.096Z,102429.67
2023-01-23T03:44:57.193Z,102432.33
2023-01-23T03:47:27.064Z,102436.42
2023-01-23T03:49:56.176Z,102439.48
2023-01-23T03:52:24.734Z,102437.92
2023-01-23T03:54:53.067Z,102443.06
2023-01-23T03:57:21.250Z,102446.29
2023-01-23T03:59:49.556Z,102445.20
2023-01-23T04:02:19.704Z,102442.73
2023-01-23T04:04:47.851Z,102449.84
2023-01-23T04:07:17.752Z,102450.34
2023-01-23T04:09:46.828Z,102449.71
2023-01-23T04:12:14.941Z,102451.72
2023-01-23T04:14:45.338Z,102454.39
2023-01-23T04:17:14.174Z,102454.48
2023-01-23T04:19:42.125Z,102453.46
2023-01-23T04:22:11.077Z,102453.42
2023-01-23T04:24:43.584Z,102454.66
2023-01-23T04:27:11.858Z,102456.73
2023-01-23T04:29:40.605Z,102456.97
2023-01-23T04:32:10.426Z,102460.50
2023-01-23T04:34:43.042Z,102461.91
2023-01-23T04:37:11.200Z,102458.34
2023-01-23T04:39:40.032Z,102456.69
2023-01-23T04:42:08.166Z,102460.79
2023-01-23T04:44:53.161Z,102458.48
2023-01-23T04:47:27.141Z,102461.81
2023-01-23T04:49:55.081Z,102467.33
2023-01-23T04:52:22.973Z,102475.23
2023-01-23T04:54:58.433Z,102473.64
2023-01-23T04:57:26.420Z,102478.20
2023-01-23T05:00:00.553Z,102477.63
2023-01-23T05:02:29.250Z,102478.48
2023-01-23T05:04:57.655Z,102480.59
2023-01-23T05:07:42.244Z,102484.55
2023-01-23T05:10:13.434Z,102487.02
2023-01-23T05:12:41.554Z,102485.88
2023-01-23T05:15:10.489Z,102492.77
2023-01-23T05:17:40.333Z,102501.39
2023-01-23T05:20:09.365Z,102505.89
2023-01-23T05:22:38.993Z,102507.35
2023-01-23T05:25:08.161Z,102509.73
2023-01-23T05:27:36.415Z,102512.63
2023-01-23T05:30:04.455Z,102510.63
2023-01-23T05:32:34.632Z,102513.67
2023-01-23T05:35:20.142Z,102516.64
2023-01-23T05:37:52.153Z,102524.07
2023-01-23T05:40:22.738Z,102525.77
2023-01-23T05:43:12.837Z,102528.21
2023-01-23T05:46:02.911Z,102535.02
2023-01-23T05:48:50.441Z,102534.66
2023-01-23T05:51:18.605Z,102538.98
2023-01-23T05:53:46.705Z,102544.08
2023-01-23T05:56:15.594Z,102548.67
2023-01-23T05:59:05.770Z,102551.00
2023-01-23T06:01:41.695Z,102549.63
2023-01-23T06:04:18.229Z,102553.58
2023-01-23T06:07:03.295Z,102558.16
2023-01-23T06:09:31.734Z,102562.48
2023-01-23T06:12:01.175Z,102564.42
2023-01-23T06:14:29.845Z,102566.06
2023-01-23T06:16:57.896Z,102570.67
2023-01-23T06:19:25.664Z,102572.64
2023-01-23T06:21:53.665Z,102572.70
2023-01-23T06:24:21.683Z,102572.20
2023-01-23T06:26:49.953Z,102574.05
2023-01-23T06:29:17.782Z,102573.64
2023-01-23T06:31:47.531Z,102577.31
2023-01-23T06:34:17.316Z,102577.77
2023-01-23T06:36:54.164Z,102577.58
2023-01-23T06:39:22.592Z,102575.35
2023-01-23T06:41:51.868Z,102576.69
2023-01-23T06:44:24.237Z,102580.26
2023-01-23T06:46:53.966Z,102580.67
2023-01-23T06:49:23.587Z,102582.73
2023-01-23T06:51:51.711Z,102588.20
2023-01-23T06:54:20.358Z,102587.92
2023-01-23T06:56:51.715Z,102588.64
2023-01-23T06:59:19.881Z,102587.50
2023-01-23T07:01:50.673Z,102587.04
2023-01-23T07:04:34.540Z,102591.35
2023-01-23T07:07:03.201Z,102590.64
2023-01-23T07:09:31.896Z,102592.42
2023-01-23T07:12:11.984Z,102599.84
2023-01-23T07:14:40.039Z,102599.78
2023-01-23T07:17:09.520Z,102601.44
2023-01-23T07:19:37.545Z,102606.35
2023-01-23T07:22:08.025Z,102608.33
2023-01-23T07:24:37.206Z,102601.64
2023-01-23T07:27:05.066Z,102602.90
2023-01-23T07:29:33.101Z,102603.50
2023-01-23T07:32:01.761Z,102602.34
2023-01-23T07:34:29.732Z,102602.29
2023-01-23T07:36:57.647Z,102604.99
2023-01-23T07:39:25.609Z,102603.55
2023-01-23T07:41:54.182Z,102603.41
2023-01-23T07:44:23.072Z,102607.77
2023-01-23T07:46:51.471Z,102611.60
2023-01-23T07:49:19.396Z,102613.42
2023-01-23T07:51:47.356Z,102615.09
2023-01-23T07:54:15.626Z,102616.09
2023-01-23T07:56:43.649Z,102612.23
2023-01-23T07:59:15.078Z,102617.02
2023-01-23T08:01:44.502Z,102617.06
2023-01-23T08:04:12.481Z,102618.45
2023-01-23T08:07:05.575Z,102622.74
2023-01-23T08:09:33.699Z,102625.33
2023-01-23T08:12:03.350Z,102630.08
2023-01-23T08:14:31.583Z,102631.45
2023-01-23T08:16:59.740Z,102631.14
2023-01-23T08:19:28.443Z,102632.35
2023-01-23T08:21:56.419Z,102633.80
2023-01-23T08:24:25.409Z,102633.80
2023-01-23T08:26:55.414Z,102637.69
2023-01-23T08:29:23.524Z,102637.30
2023-01-23T08:31:55.467Z,102638.05
2023-01-23T08:34:24.749Z,102644.77
2023-01-23T08:36:52.773Z,102641.57
2023-01-23T08:39:20.802Z,102640.58
2023-01-23T08:41:49.358Z,102637.27
2023-01-23T08:44:18.026Z,102640.27
2023-01-23T08:46:46.964Z,102639.77
2023-01-23T08:49:16.869Z,102644.48
2023-01-23T08:51:45.119Z,102642.83
2023-01-23T08:54:13.491Z,102652.13
2023-01-23T08:56:42.019Z,102651.64
2023-01-23T08:59:11.294Z,102651.46
2023-01-23T09:01:40.468Z,102650.99
2023-01-23T09:04:09.721Z,102646.55
2023-01-23T09:06:39.232Z,102652.41
2023-01-23T09:09:08.114Z,102648.12
2023-01-23T09:11:37.621Z,102649.48
2023-01-23T09:14:06.184Z,102645.64
2023-01-23T09:16:34.578Z,102644.39
2023-01-23T09:19:02.688Z,102641.73
2023-01-23T09:21:31.194Z,102643.33
2023-01-23T09:23:59.855Z,102642.65
2023-01-23T09:26:29.467Z,102649.20
2023-01-23T09:28:58.033Z,102643.84
2023-01-23T09:31:26.397Z,102649.48
2023-01-23T09:33:55.793Z,102651.80
2023-01-23T09:36:41.303Z,102644.92
2023-01-23T09:39:10.432Z,102647.10
2023-01-23T09:41:39.764Z,102646.25
2023-01-23T09:44:37.079Z,102654.13
2023-01-23T09:47:26.703Z,102647.10
2023-01-23T09:50:07.774Z,102645.09
2023-01-23T09:52:59.486Z,102644.23
2023-01-23T09:55:27.686Z,102640.56
2023-01-23T09:57:57.899Z,102637.17
2023-01-23T10:00:32.336Z,102630.97
2023-01-23T10:03:07.232Z,102634.66
2023-01-23T10:05:53.861Z,102632.08
2023-01-23T10:08:49.226Z,102628.05
2023-01-23T10:11:27.333Z,102626.77
2023-01-23T10:14:25.814Z,102626.77
2023-01-23T10:17:16.108Z,102623.83
2023-01-23T10:20:20.337Z,102624.79
2023-01-23T10:22:55.000Z,102619.74
2023-01-23T10:25:25.952Z,102621.19
2023-01-23T10:28:00.459Z,102616.20
2023-01-23T10:30:39.096Z,102615.11
2023-01-23T10:33:15.258Z,102616.16
2023-01-23T10:36:07.920Z,102618.05
2023-01-23T10:38:46.940Z,102615.69
2023-01-23T10:41:23.195Z,102611.77
2023-01-23T10:43:54.914Z,102606.32
2023-01-23T10:46:39.865Z,102606.02
2023-01-23T10:49:11.306Z,102605.20
2023-01-23T10:51:49.700Z,102605.36
2023-01-23T10:54:31.660Z,102608.13
2023-01-23T10:57:12.461Z,102605.33
2023-01-23T11:00:15.410Z,102604.81
2023-01-23T11:02:45.886Z,102605.91
2023-01-23T11:05:52.410Z,102611.45
2023-01-23T11:08:35.413Z,102615.27
2023-01-23T11:11:16.331Z,102614.70
2023-01-23T11:13:46.948Z,102615.11
2023-01-23T11:16:21.907Z,102615.72
2023-01-23T11:18:55.130Z,102613.94
2023-01-23T11:21:30.947Z,102616.23
2023-01-23T11:24:39.025Z,102618.23
2023-01-23T11:27:35.432Z,102610.83
2023-01-23T11:30:13.063Z,102616.13
2023-01-23T11:32:52.452Z,102610.41
2023-01-23T11:35:30.668Z,102614.23
2023-01-23T11:37:59.411Z,102613.27
2023-01-23T11:40:28.562Z,102612.04
2023-01-23T11:42:56.647Z,102604.20
2023-01-23T11:45:59.216Z,102606.86
2023-01-23T11:48:39.562Z,102611.17
2023-01-23T11:51:38.472Z,102609.10
2023-01-23T11:54:39.079Z,102611.39
2023-01-23T11:57:23.585Z,102614.65
2023-01-23T11:59:57.390Z,102619.66
2023-01-23T12:02:49.435Z,102619.75
2023-01-23T12:05:31.753Z,102621.06
2023-01-23T12:08:40.705Z,102616.77
2023-01-23T12:11:21.070Z,102622.29
2023-01-23T12:14:08.315Z,102625.85
2023-01-23T12:16:52.003Z,102626.72
2023-01-23T12:19:22.962Z,102629.92
2023-01-23T12:22:01.491Z,102634.34
2023-01-23T12:25:01.268Z,102634.34
2023-01-23T12:27:49.752Z,102633.77
2023-01-23T12:30:30.037Z,102641.23
2023-01-23T12:33:15.195Z,102645.10
2023-01-23T12:36:07.874Z,102649.88
2023-01-23T12:38:55.036Z,102648.85
2023-01-23T12:41:43.074Z,102651.52
2023-01-23T12:44:18.136Z,102653.38
2023-01-23T12:46:51.487Z,102653.17
2023-01-23T12:49:23.191Z,102657.49
2023-01-23T12:52:12.719Z,102661.71
2023-01-23T12:54:50.725Z,102665.64
2023-01-23T12:57:52.802Z,102661.77
2023-01-23T13:00:53.716Z,102669.46
2023-01-23T13:03:47.295Z,102672.16
2023-01-23T13:06:42.746Z,102674.88
2023-01-23T13:09:23.536Z,102677.27
2023-01-23T13:12:22.874Z,102676.65
2023-01-23T13:15:13.882Z,102683.42
2023-01-23T13:18:01.047Z,102683.73
2023-01-23T13:20:53.418Z,102684.56
2023-01-23T13:23:29.739Z,102687.27
2023-01-23T13:26:16.301Z,102691.98
2023-01-23T13:29:04.089Z,102694.90
2023-01-23T13:31:48.131Z,102696.83
2023-01-23T13:34:18.070Z,102698.24
2023-01-23T13:36:49.078Z,102699.45
2023-01-23T13:39:17.745Z,102696.70
2023-01-23T13:41:46.855Z,102690.47
2023-01-23T13:44:21.303Z,102697.09
2023-01-23T14:27:53.214Z,102709.89
2023-01-23T14:30:27.541Z,102706.92
2023-01-23T14:32:56.323Z,102707.17
2023-01-23T14:35:31.417Z,102714.14
2023-01-23T14:38:02.097Z,102711.91
2023-01-23T14:40:43.061Z,102713.34
2023-01-23T14:43:24.610Z,102715.79
2023-01-23T14:46:05.467Z,102719.36
2023-01-23T14:48:36.889Z,102726.61
2023-01-23T14:51:29.856Z,102727.45
2023-01-23T14:54:04.276Z,102734.69
2023-01-23T14:56:40.302Z,102737.83
2023-01-23T14:59:16.657Z,102739.33
2023-01-23T15:01:53.342Z,102742.33
2023-01-23T15:04:24.296Z,102737.14
2023-01-23T15:06:54.514Z,102742.18
2023-01-23T15:09:30.188Z,102741.95
2023-01-23T15:12:10.418Z,102740.38
2023-01-23T15:14:41.120Z,102743.45
2023-01-23T15:17:16.997Z,102744.58
2023-01-23T15:19:55.078Z,102744.61
2023-01-23T15:22:28.909Z,102743.03
2023-01-23T15:24:59.783Z,102742.90
2023-01-23T15:27:34.908Z,102746.46
2023-01-23T15:30:52.004Z,102745.61
2023-01-23T15:33:38.830Z,102740.75
2023-01-23T15:36:11.990Z,102743.19
2023-01-23T15:38:48.333Z,102747.34
2023-01-23T15:41:33.767Z,102746.55
2023-01-23T15:44:05.362Z,102746.69
2023-01-23T15:46:39.014Z,102749.09
2023-01-23T15:49:26.204Z,102751.23
2023-01-23T15:52:02.618Z,102752.10
2023-01-23T15:54:37.790Z,102756.06
2023-01-23T15:57:09.311Z,102761.54
2023-01-23T15:59:42.149Z,102754.47
2023-01-23T16:02:30.988Z,102758.42
2023-01-23T16:05:08.580Z,102762.14
2023-01-23T16:07:46.051Z,102757.33
2023-01-23T16:10:27.496Z,102759.95
2023-01-23T16:13:04.587Z,102759.58
2023-01-23T16:15:40.519Z,102763.31
2023-01-23T16:18:13.697Z,102768.24
2023-01-23T16:20:47.427Z,102764.64
2023-01-23T16:23:25.951Z,102766.27
2023-01-23T16:25:58.578Z,102761.23
2023-01-23T16:28:32.166Z,102759.64
2023-01-23T16:31:05.305Z,102763.70
2023-01-23T16:33:41.027Z,102760.06
2023-01-23T16:36:18.969Z,102759.67
2023-01-23T16:38:59.633Z,102759.00
2023-01-23T16:41:31.756Z,102761.58
2023-01-23T16:44:05.172Z,102762.62
2023-01-23T16:46:35.710Z,102765.85
2023-01-23T16:49:09.366Z,102770.44
2023-01-23T16:51:42.682Z,102768.30
2023-01-23T16:54:23.666Z,102766.63
2023-01-23T16:57:01.269Z,102765.42
2023-01-23T16:59:38.438Z,102767.00
2023-01-23T17:02:30.828Z,102769.54
2023-01-23T17:05:01.689Z,102766.17
2023-01-23T17:07:39.084Z,102768.73
2023-01-23T17:10:32.111Z,102768.87
2023-01-23T17:13:09.595Z,102769.52
2023-01-23T17:15:40.694Z,102769.84
2023-01-23T17:18:23.552Z,102769.52
2023-01-23T17:21:10.199Z,102767.81
2023-01-23T17:23:41.217Z,102771.94
2023-01-23T17:26:31.247Z,102770.70
2023-01-23T17:29:04.915Z,102773.45
2023-01-23T17:31:38.128Z,102776.41
2023-01-23T17:34:22.688Z,102773.89
2023-01-23T17:37:01.533Z,102771.76
2023-01-23T17:39:41.720Z,102782.42
2023-01-23T17:42:15.194Z,102775.30
2023-01-23T17:47:46.236Z,102772.73
2023-01-23T17:50:29.658Z,102769.02
2023-01-23T17:53:02.987Z,102764.22
2023-01-23T17:55:34.443Z,102760.48
2023-01-23T17:58:06.796Z,102756.73
2023-01-23T18:00:40.634Z,102758.77
2023-01-23T18:03:15.859Z,102751.37
2023-01-23T18:05:51.784Z,102750.38
2023-01-23T18:08:30.162Z,102749.63
2023-01-23T18:11:04.701Z,102748.52
2023-01-23T18:13:47.595Z,102746.97
2023-01-23T18:16:34.753Z,102739.09
2023-01-23T18:19:15.567Z,102740.45
2023-01-23T18:21:49.962Z,102736.46
2023-01-23T18:24:38.674Z,102731.06
2023-01-23T18:27:22.648Z,102730.16
2023-01-23T18:30:19.985Z,102732.10
2023-01-23T18:33:28.059Z,102727.80
2023-01-23T18:36:09.228Z,102727.02
2023-01-23T18:39:10.792Z,102728.39
2023-01-23T18:41:51.342Z,102727.27
2023-01-23T18:44:30.536Z,102729.79
2023-01-23T18:47:06.155Z,102735.02
2023-01-23T18:49:42.824Z,102736.86
2023-01-23T18:52:25.737Z,102733.48
2023-01-23T18:55:05.468Z,102736.38
2023-01-23T18:57:48.881Z,102736.41
2023-01-23T19:00:22.134Z,102734.30
2023-01-23T19:03:09.172Z,102732.59
2023-01-23T19:05:42.943Z,102738.77
2023-01-23T19:08:36.753Z,102737.89
2023-01-23T19:11:33.779Z,102737.80
2023-01-23T19:14:52.397Z,102736.55
2023-01-23T19:17:42.496Z,102732.67
2023-01-23T19:20:34.614Z,102731.84
2023-01-23T19:23:32.078Z,102734.39
2023-01-23T19:26:12.880Z,102728.50
2023-01-23T19:28:50.609Z,102734.66
2023-01-23T19:31:27.717Z,102731.01
2023-01-23T19:33:58.768Z,102730.73
2023-01-23T19:36:35.949Z,102735.25
2023-01-23T19:39:08.601Z,102731.81
2023-01-23T19:41:42.754Z,102735.81
2023-01-23T19:44:20.507Z,102738.24
2023-01-23T19:46:50.368Z,102735.77
2023-01-23T19:49:22.491Z,102735.44
2023-01-23T19:51:52.151Z,102736.14
2023-01-23T19:54:24.083Z,102734.89
2023-01-23T19:56:58.139Z,102737.81
2023-01-23T19:59:28.076Z,102737.95
2023-01-23T20:02:01.458Z,102739.64
2023-01-23T20:04:31.228Z,102733.75
2023-01-23T20:07:00.881Z,102736.05
2023-01-23T20:09:30.917Z,102734.13
2023-01-23T20:12:00.751Z,102734.73
2023-01-23T20:14:30.451Z,102733.95
2023-01-23T20:17:01.036Z,102735.89
2023-01-23T20:19:31.007Z,102729.77
2023-01-23T20:22:01.322Z,102731.39
2023-01-23T20:24:32.513Z,102728.63
2023-01-23T20:27:02.076Z,102731.46
2023-01-23T20:29:32.670Z,102734.95
2023-01-23T20:32:02.480Z,102734.15
2023-01-23T20:34:34.155Z,102738.75
2023-01-23T20:37:03.636Z,102736.33
2023-01-23T20:39:34.692Z,102736.89
2023-01-23T20:42:04.185Z,102731.44
2023-01-23T20:44:33.614Z,102731.55
2023-01-23T20:47:05.001Z,102731.34
2023-01-23T20:49:35.545Z,102733.96
2023-01-23T20:52:24.863Z,102735.41
2023-01-23T20:54:55.811Z,102731.87
2023-01-23T20:57:46.123Z,102731.56
2023-01-23T21:00:16.555Z,102730.83
2023-01-23T21:02:46.339Z,102730.15
2023-01-23T21:05:15.867Z,102728.92
2023-01-23T21:07:45.345Z,102731.04
2023-01-23T21:10:15.060Z,102731.88
2023-01-23T21:12:48.067Z,102729.00
2023-01-23T21:15:17.597Z,102727.04
2023-01-23T21:17:46.842Z,102729.39
2023-01-23T21:20:16.916Z,102726.36
2023-01-23T21:22:48.682Z,102730.79
2023-01-23T21:25:17.888Z,102729.31
2023-01-23T21:27:47.752Z,102728.29
2023-01-23T21:30:17.254Z,102730.88
2023-01-23T21:32:46.713Z,102726.13
2023-01-23T21:35:15.945Z,102725.15
2023-01-23T21:37:45.871Z,102724.57
2023-01-23T21:40:15.526Z,102723.60
2023-01-23T21:42:44.826Z,102723.06
2023-01-23T21:45:13.991Z,102717.66
2023-01-23T21:47:43.055Z,102718.27
2023-01-23T21:50:12.811Z,102719.58
2023-01-23T21:52:42.649Z,102719.38
2023-01-23T21:55:12.071Z,102721.45
2023-01-23T21:57:41.558Z,102719.41
2023-01-23T22:00:30.271Z,102718.42
2023-01-23T22:03:00.011Z,102721.84
2023-01-23T22:05:29.455Z,102722.36
2023-01-23T22:07:58.806Z,102724.23
2023-01-23T22:10:28.930Z,102722.45
2023-01-23T22:12:58.549Z,102719.77
2023-01-23T22:15:28.228Z,102717.59
2023-01-23T22:17:57.914Z,102717.58
2023-01-23T22:20:28.522Z,102719.02
2023-01-23T22:22:58.077Z,102718.92
2023-01-23T22:25:27.491Z,102722.87
2023-01-23T22:27:56.758Z,102721.23
2023-01-23T22:30:25.972Z,102721.41
2023-01-23T22:32:55.248Z,102721.02
2023-01-23T22:35:24.600Z,102720.37
2023-01-23T22:37:54.568Z,102716.30
2023-01-23T22:40:24.001Z,102717.06
2023-01-23T22:42:53.239Z,102718.08
2023-01-23T22:45:23.014Z,102716.94
2023-01-23T22:47:52.997Z,102717.84
2023-01-23T22:50:22.754Z,102720.27
2023-01-23T22:52:51.992Z,102725.04
2023-01-23T22:55:21.398Z,102724.27
2023-01-23T22:57:53.775Z,102726.35
2023-01-23T23:00:23.450Z,102726.83
2023-01-23T23:02:52.525Z,102721.60
2023-01-23T23:05:21.948Z,102720.07
2023-01-23T23:07:52.907Z,102718.66
2023-01-23T23:10:23.485Z,102723.91
2023-01-23T23:12:52.533Z,102722.11
2023-01-23T23:15:22.452Z,102720.63
2023-01-23T23:17:51.892Z,102718.45
2023-01-23T23:20:22.586Z,102720.87
2023-01-23T23:22:51.977Z,102722.39
2023-01-23T23:25:21.930Z,102724.34
2023-01-23T23:27:51.485Z,102725.67
2023-01-23T23:30:20.796Z,102729.71
2023-01-23T23:32:50.361Z,102734.46
2023-01-23T23:35:24.141Z,102738.52
2023-01-23T23:37:53.281Z,102742.55
2023-01-23T23:40:22.449Z,102744.86
2023-01-23T23:42:51.646Z,102751.36
2023-01-23T23:45:20.999Z,102755.13
2023-01-23T23:47:50.739Z,102754.38
2023-01-23T23:50:19.874Z,102753.79
2023-01-23T23:52:48.887Z,102754.59
2023-01-23T23:55:18.244Z,102751.38
2023-01-23T23:57:47.309Z,102752.70
